Time;durP1;ratioP1;P1;durP2;ratioP2;P2;SDS_P1;SDS_P2;PMS_P1;PMS_P2;Temp;Humidity;BMP_temperature;BMP_pressure;BME280_temperature;BME280_humidity;BME280_pressure;Samples;Min_cycle;Max_cycle;Signal;HPM_P1;HPM_P2
2021/08/24 00:01:48;;;;;;;8.23;2.30;;;;;;;11.08;96.55;102451.59;5068595;28;20136;-68
2021/08/24 00:04:14;;;;;;;12.23;2.93;;;;;;;11.07;98.05;102450.72;5068533;28;20699;-68
2021/08/24 00:06:39;;;;;;;6.50;2.43;;;;;;;11.06;98.90;102458.88;5069535;28;20452;-68
2021/08/24 00:09:05;;;;;;;3.30;2.03;;;;;;;11.01;98.67;102453.06;5069501;28;20105;-68
2021/08/24 00:11:33;;;;;;;7.43;2.58;;;;;;;10.98;98.29;102459.50;5051756;28;20037;-68
2021/08/24 00:14:06;;;;;;;6.07;3.17;;;;;;;10.90;98.39;102454.75;5051823;28;20170;-68
2021/08/24 00:16:31;;;;;;;5.50;2.60;;;;;;;10.88;98.69;102456.69;5068971;28;20032;-68
2021/08/24 00:18:57;;;;;;;3.67;2.20;;;;;;;10.83;98.65;102456.22;5068593;28;20388;-68
2021/08/24 00:21:22;;;;;;;7.93;3.22;;;;;;;10.84;98.90;102457.94;5068239;28;20102;-68
2021/08/24 00:23:48;;;;;;;3.33;2.13;;;;;;;10.88;99.26;102467.38;5068265;28;20032;-68
2021/08/24 00:26:13;;;;;;;4.40;2.50;;;;;;;10.88;99.38;102467.38;5068592;28;20469;-68
2021/08/24 00:28:38;;;;;;;6.93;3.17;;;;;;;10.97;100.00;102461.31;5069322;28;20549;-68
2021/08/24 00:31:04;;;;;;;5.60;3.00;;;;;;;10.97;100.00;102472.00;5067885;28;20174;-68
2021/08/24 00:33:29;;;;;;;5.07;2.57;;;;;;;10.86;99.45;102469.31;5069134;28;20050;-68
2021/08/24 00:35:55;;;;;;;4.13;2.23;;;;;;;10.78;98.96;102474.44;5068551;28;20040;-68
2021/08/24 00:38:23;;;;;;;4.37;2.43;;;;;;;10.76;98.61;102471.03;5069140;28;20032;-68
2021/08/24 00:41:01;;;;;;;3.78;2.25;;;;;;;10.75;98.20;102472.03;5068776;28;20453;-68
2021/08/24 00:43:29;;;;;;;6.30;3.30;;;;;;;10.72;98.41;102472.25;5068904;28;20046;-68
2021/08/24 00:46:27;;;;;;;5.53;2.53;;;;;;;10.67;98.29;102467.28;5033925;28;20036;-68
2021/08/24 00:48:53;;;;;;;4.57;3.10;;;;;;;10.67;98.35;102467.28;5068888;28;20170;-68
2021/08/24 00:51:23;;;;;;;9.20;2.90;;;;;;;10.67;98.24;102474.44;5068179;28;20111;-68
2021/08/24 00:53:49;;;;;;;8.27;2.72;;;;;;;10.63;97.92;102462.28;5068761;28;20119;-68
2021/08/24 00:56:15;;;;;;;;;;;;;;;10.66;99.13;102468.25;5067661;28;20105;-68
2021/08/24 00:58:40;;;;;;;;;;;;;;;10.58;99.06;102465.31;5068200;28;19936;-68
2021/08/24 01:01:06;;;;;;;5.17;2.37;;;;;;;10.51;98.67;102466.78;5067336;28;19970;-68
2021/08/24 01:03:40;;;;;;;4.10;2.35;;;;;;;10.48;98.78;102465.19;5067601;28;20071;-68
2021/08/24 01:06:28;;;;;;;4.32;2.60;;;;;;;10.47;98.87;102468.84;5067343;28;20431;-68
2021/08/24 01:09:06;;;;;;;5.07;2.65;;;;;;;10.47;98.97;102468.84;5067929;28;20048;-68
2021/08/24 01:11:46;;;;;;;3.72;2.53;;;;;;;10.43;98.68;102478.06;5067826;28;20028;-68
2021/08/24 01:14:23;;;;;;;4.00;2.40;;;;;;;10.44;98.39;102478.91;5068440;28;20448;-68
2021/08/24 01:16:59;;;;;;;8.52;2.30;;;;;;;10.42;98.45;102476.38;5067216;28;20373;-68
2021/08/24 01:19:53;;;;;;;4.43;3.10;;;;;;;10.43;98.17;102477.22;5068694;28;20037;-68
2021/08/24 01:22:46;;;;;;;5.63;2.85;;;;;;;10.40;97.76;102477.47;5066546;28;20063;-68
2021/08/24 01:25:24;;;;;;;5.75;2.72;;;;;;;10.37;97.64;102478.53;5067242;28;20119;-68
2021/08/24 01:28:00;;;;;;;4.97;2.33;;;;;;;10.36;97.72;102474.16;5067986;28;20075;-68
2021/08/24 01:30:38;;;;;;;;;;;;;;;10.35;97.99;102476.00;5068776;28;20063;-68
2021/08/24 01:33:13;;;;;;;6.82;3.50;;;;;;;10.42;99.00;102475.50;5067078;28;20415;-68
2021/08/24 01:36:13;;;;;;;5.32;3.58;;;;;;;10.29;98.60;102486.28;5068149;28;20462;-68
2021/08/24 01:38:49;;;;;;;4.32;2.55;;;;;;;10.21;98.53;102485.97;5062236;28;20467;-68
2021/08/24 01:41:21;;;;;;;4.57;2.78;;;;;;;10.18;98.32;102488.91;5067306;28;20041;-68
2021/08/24 01:44:11;;;;;;;7.53;3.03;;;;;;;10.13;98.29;102481.25;5066898;28;20040;-68
2021/08/24 01:46:47;;;;;;;3.58;2.33;;;;;;;10.07;98.10;102487.06;5068057;28;20113;-68
2021/08/24 01:49:17;;;;;;;4.32;2.38;;;;;;;10.07;98.16;102487.06;5068014;28;20047;-68
2021/08/24 01:51:48;;;;;;;4.05;2.88;;;;;;;10.04;98.22;102482.78;5066565;28;20572;-68
2021/08/24 01:54:19;;;;;;;5.13;2.50;;;;;;;10.05;98.38;102479.16;5066960;28;20036;-68
2021/08/24 01:56:46;;;;;;;6.60;2.58;;;;;;;10.06;98.42;102482.69;5067908;28;20055;-68
2021/08/24 01:59:34;;;;;;;4.68;2.60;;;;;;;10.03;98.55;102481.09;5066859;28;20039;-68
2021/08/24 02:02:16;;;;;;;8.77;3.35;;;;;;;10.02;98.30;102482.06;5067090;28;20157;-68
2021/08/24 02:04:57;;;;;;;5.15;2.47;;;;;;;10.02;98.67;102490.09;5067738;28;20036;-68
2021/08/24 02:07:24;;;;;;;3.70;2.75;;;;;;;10.01;98.50;102488.38;5067725;28;20101;-68
2021/08/24 02:09:54;;;;;;;4.40;3.08;;;;;;;10.01;98.93;102487.53;5066912;28;20036;-68
2021/08/24 02:12:23;;;;;;;5.82;3.30;;;;;;;10.01;99.57;102491.03;5066976;28;20853;-68
2021/08/24 02:14:48;;;;;;;4.57;3.28;;;;;;;10.02;100.00;102490.09;5066680;28;20044;-68
2021/08/24 02:17:17;;;;;;;8.30;4.35;;;;;;;10.03;100.00;102496.25;5066721;28;20139;-68
2021/08/24 02:19:55;;;;;;;5.95;3.38;;;;;;;9.96;99.73;102495.88;5067759;28;20040;-68
2021/08/24 02:22:28;;;;;;;5.95;3.17;;;;;;;9.85;99.14;102485.16;5067409;28;20358;-68
2021/08/24 02:24:58;;;;;;;6.03;3.50;;;;;;;9.81;99.12;102497.00;5071486;28;20041;-68
2021/08/24 02:27:29;;;;;;;7.22;4.20;;;;;;;9.81;99.57;102494.34;5071537;28;20047;-68
2021/08/24 02:29:54;;;;;;;6.97;3.72;;;;;;;9.82;99.98;102491.56;5071394;28;20052;-68
2021/08/24 02:32:32;;;;;;;6.30;4.17;;;;;;;9.85;100.00;102494.00;5053944;28;20021;-68
2021/08/24 02:35:08;;;;;;;5.60;3.22;;;;;;;9.86;100.00;102494.88;5070405;28;20610;-68
2021/08/24 02:37:49;;;;;;;5.75;4.40;;;;;;;9.88;100.00;102498.25;5071417;28;20611;-68
2021/08/24 02:40:56;;;;;;;6.50;4.50;;;;;;;9.83;100.00;102495.09;5070070;28;20044;-68
2021/08/24 02:43:42;;;;;;;18.42;9.93;;;;;;;9.92;100.00;102500.56;5071346;28;20037;-68
2021/08/24 02:46:14;;;;;;;11.82;7.72;;;;;;;9.89;100.00;102507.97;5070884;28;20144;-68
2021/08/24 02:48:43;;;;;;;13.82;6.80;;;;;;;9.84;100.00;102502.13;5070600;28;20072;-68
2021/08/24 02:51:11;;;;;;;8.80;6.63;;;;;;;9.84;100.00;102504.81;5069607;28;20017;-68
2021/08/24 02:53:38;;;;;;;10.23;6.53;;;;;;;9.82;100.00;102509.41;5071339;28;20028;-68
2021/08/24 02:56:04;;;;;;;7.60;5.20;;;;;;;9.79;100.00;102513.16;5070746;28;20032;-67
2021/08/24 02:58:29;;;;;;;7.90;5.43;;;;;;;9.78;100.00;102519.44;5070406;28;20483;-68
2021/08/24 03:00:54;;;;;;;11.70;7.40;;;;;;;9.84;100.00;102515.47;5071180;28;20119;-68
2021/08/24 03:03:19;;;;;;;13.00;7.60;;;;;;;9.83;100.00;102521.75;5070996;28;20098;-68
2021/08/24 03:05:45;;;;;;;14.33;9.30;;;;;;;9.86;100.00;102510.88;5069983;28;20063;-68
2021/08/24 03:08:12;;;;;;;12.23;7.35;;;;;;;9.83;100.00;102511.09;5070903;28;20365;-68
2021/08/24 03:10:39;;;;;;;;;;;;;;;9.83;100.00;102509.28;5070362;28;20464;-68
2021/08/24 03:13:11;;;;;;;10.82;6.60;;;;;;;9.72;100.00;102498.56;5070654;28;20015;-68
2021/08/24 03:15:49;;;;;;;11.68;8.00;;;;;;;9.69;100.00;102499.66;5070784;28;20466;-68
2021/08/24 03:18:24;;;;;;;13.75;7.50;;;;;;;9.65;100.00;102508.84;5069762;28;20068;-68
2021/08/24 03:20:56;;;;;;;16.85;8.40;;;;;;;9.67;100.00;102506.91;5070062;28;20136;-68
2021/08/24 03:23:24;;;;;;;10.32;6.88;;;;;;;9.67;100.00;102500.72;5070598;28;20115;-68
2021/08/24 03:25:50;;;;;;;9.85;7.50;;;;;;;9.61;100.00;102494.03;5052759;28;20028;-68
2021/08/24 03:28:18;;;;;;;12.82;8.23;;;;;;;9.71;100.00;102505.69;5070288;28;20043;-68
2021/08/24 03:30:43;;;;;;;12.80;7.85;;;;;;;9.64;100.00;102504.44;5069737;28;20043;-71
2021/08/24 03:33:10;;;;;;;13.10;7.93;;;;;;;9.60;100.00;102492.34;5069354;28;20036;-71
2021/08/24 03:35:37;;;;;;;14.90;8.73;;;;;;;9.55;100.00;102499.78;5070566;28;20035;-70
2021/08/24 03:38:03;;;;;;;13.75;8.20;;;;;;;9.53;100.00;102499.09;5070176;28;20032;-70
2021/08/24 03:40:29;;;;;;;14.38;9.30;;;;;;;9.50;100.00;102499.28;5069733;28;20024;-70
2021/08/24 03:42:55;;;;;;;18.37;11.73;;;;;;;9.52;100.00;102500.03;5069099;28;20055;-70
2021/08/24 03:45:21;;;;;;;;;;;;;;;9.60;100.00;102499.44;5069717;28;20044;-70
2021/08/24 03:47:46;;;;;;;;;;;;;;;9.58;100.00;102506.75;5069551;28;20336;-70
2021/08/24 03:50:11;;;;;;;14.17;9.13;;;;;;;9.49;100.00;102509.09;5052718;28;20258;-71
2021/08/24 03:52:37;;;;;;;10.50;7.20;;;;;;;9.44;100.00;102507.75;5069977;28;20043;-71
2021/08/24 03:55:03;;;;;;;15.70;9.77;;;;;;;9.38;100.00;102503.69;5052353;28;20025;-70
2021/08/24 03:57:28;;;;;;;13.43;8.77;;;;;;;9.43;100.00;102506.88;5068821;28;20047;-70
2021/08/24 03:59:55;;;;;;;18.53;10.07;;;;;;;9.47;100.00;102512.84;5068923;28;20552;-71
2021/08/24 04:02:20;;;;;;;;;;;;;;;9.44;100.00;102502.41;5069427;28;20039;-70
2021/08/24 04:04:45;;;;;;;;;;;;;;;9.42;100.00;102509.69;5070234;28;19912;-70
2021/08/24 04:07:11;;;;;;;19.17;11.03;;;;;;;9.43;100.00;102503.38;5069693;28;20356;-70
2021/08/24 04:09:36;;;;;;;17.43;10.43;;;;;;;9.41;100.00;102505.28;5069780;28;20024;-71
2021/08/24 04:12:02;;;;;;;15.93;10.90;;;;;;;9.42;100.00;102509.69;5068532;28;20483;-70
2021/08/24 04:14:27;;;;;;;23.30;12.37;;;;;;;9.43;100.00;102503.38;5068516;28;20055;-70
2021/08/24 04:16:53;;;;;;;19.77;11.07;;;;;;;9.39;100.00;102508.09;5069494;28;20758;-70
2021/08/24 04:19:18;;;;;;;22.58;11.90;;;;;;;9.38;100.00;102516.19;5051901;28;20542;-71
2021/08/24 04:21:43;;;;;;;26.47;14.53;;;;;;;9.34;100.00;102515.56;5069561;28;20041;-71
2021/08/24 04:24:10;;;;;;;22.80;12.60;;;;;;;9.39;100.00;102523.22;5068488;28;20458;-70
2021/08/24 04:26:35;;;;;;;;;;;;;;;9.40;100.00;102520.44;5068350;28;20024;-71
2021/08/24 04:29:00;;;;;;;;;;;;;;;9.38;100.00;102524.19;5069079;28;20385;-70
2021/08/24 04:31:29;;;;;;;26.57;14.33;;;;;;;9.42;100.00;102531.84;5068255;28;19916;-70
2021/08/24 04:33:55;;;;;;;18.00;10.85;;;;;;;9.48;100.00;102530.53;5068308;28;20119;-70
2021/08/24 04:36:21;;;;;;;14.73;9.90;;;;;;;9.45;100.00;102533.44;5067802;28;20510;-71
2021/08/24 04:38:46;;;;;;;23.38;12.25;;;;;;;9.52;100.00;102529.34;5069419;28;20112;-70
2021/08/24 04:41:12;;;;;;;19.70;10.93;;;;;;;9.54;100.00;102529.25;5068794;28;20119;-71
2021/08/24 04:43:37;;;;;;;22.50;13.20;;;;;;;9.65;100.00;102532.00;5068095;28;20139;-71
2021/08/24 04:46:03;;;;;;;27.53;15.83;;;;;;;9.73;100.00;102538.44;5067918;28;20127;-71
2021/08/24 04:48:28;;;;;;;31.27;15.63;;;;;;;9.86;100.00;102532.22;5069133;28;20089;-70
2021/08/24 04:50:54;;;;;;;27.90;17.27;;;;;;;9.83;100.00;102532.44;5067470;28;20105;-71
2021/08/24 04:53:19;;;;;;;21.50;11.93;;;;;;;9.83;100.00;102537.75;5067887;28;20036;-70
2021/08/24 04:55:44;;;;;;;22.98;12.75;;;;;;;9.91;100.00;102540.72;5068389;28;20044;-71
2021/08/24 04:58:10;;;;;;;24.33;13.27;;;;;;;10.00;100.00;102539.19;5068803;28;20061;-71
2021/08/24 05:00:36;;;;;;;27.40;15.23;;;;;;;10.07;100.00;102537.78;5068742;28;20107;-71
2021/08/24 05:03:02;;;;;;;25.38;15.30;;;;;;;10.19;100.00;102539.50;5067541;28;20098;-71
2021/08/24 05:05:28;;;;;;;19.23;13.15;;;;;;;10.35;100.00;102542.75;5067508;28;20071;-70
2021/08/24 05:07:53;;;;;;;23.27;14.50;;;;;;;10.44;100.00;102545.66;5068321;28;20450;-70
2021/08/24 05:10:20;;;;;;;22.80;14.98;;;;;;;10.55;100.00;102551.88;5068605;28;20024;-70
2021/08/24 05:12:46;;;;;;;20.65;13.30;;;;;;;10.64;100.00;102539.63;5067465;28;20118;-70
2021/08/24 05:15:11;;;;;;;21.00;12.60;;;;;;;10.72;100.00;102544.38;5068478;28;20028;-70
2021/08/24 05:17:37;;;;;;;17.37;12.07;;;;;;;10.81;100.00;102551.69;5068185;28;20592;-70
2021/08/24 05:20:04;;;;;;;22.02;14.32;;;;;;;10.97;100.00;102546.81;5068600;28;20373;-70
2021/08/24 05:22:30;;;;;;;17.25;11.88;;;;;;;11.13;100.00;102543.78;5068252;28;20074;-71
2021/08/24 05:24:56;;;;;;;16.53;10.77;;;;;;;11.23;100.00;102546.56;5050555;28;20052;-71
2021/08/24 05:27:21;;;;;;;25.83;16.55;;;;;;;11.41;100.00;102553.13;5066940;28;20036;-70
2021/08/24 05:29:47;;;;;;;21.65;14.15;;;;;;;11.55;100.00;102554.69;5068528;28;20040;-71
2021/08/24 05:32:13;;;;;;;19.60;12.15;;;;;;;11.90;100.00;102560.84;5050406;28;20070;-70
2021/08/24 05:34:38;;;;;;;16.87;10.50;;;;;;;12.78;100.00;102548.91;5067263;28;20048;-70
2021/08/24 05:37:05;;;;;;;20.07;13.07;;;;;;;13.37;98.03;102561.63;5067061;28;20051;-70
2021/08/24 05:39:30;;;;;;;21.10;13.15;;;;;;;14.18;94.73;102556.06;5050489;28;20629;-70
2021/08/24 05:41:56;;;;;;;31.17;14.33;;;;;;;14.00;91.49;102563.13;5067287;28;20032;-70
2021/08/24 05:44:21;;;;;;;18.43;10.53;;;;;;;13.83;92.01;102565.50;5067770;28;20044;-70
2021/08/24 05:46:47;;;;;;;26.08;13.13;;;;;;;13.50;94.78;102567.56;5067132;28;20025;-70
2021/08/24 05:49:13;;;;;;;17.97;12.13;;;;;;;14.33;94.98;102562.69;5050372;28;20088;-70
2021/08/24 05:51:39;;;;;;;17.93;10.73;;;;;;;15.55;88.96;102576.19;5067860;28;20039;-70
2021/08/24 05:54:04;;;;;;;16.55;10.23;;;;;;;16.51;84.84;102577.44;5067761;28;20028;-71
2021/08/24 05:56:30;;;;;;;13.90;8.48;;;;;;;17.43;82.33;102575.97;5065957;28;20072;-71
2021/08/24 05:58:55;;;;;;;11.60;8.70;;;;;;;18.21;77.24;102578.31;5068485;28;20064;-72
2021/08/24 06:01:27;;;;;;;13.27;9.10;;;;;;;18.76;75.09;102574.06;5071155;28;20376;-70
2021/08/24 06:03:53;;;;;;;11.70;8.07;;;;;;;18.58;75.05;102573.41;5069443;28;20041;-70
2021/08/24 06:06:32;;;;;;;12.35;7.50;;;;;;;19.37;72.43;102575.22;5069026;28;20038;-71
2021/08/24 06:08:58;;;;;;;11.15;6.55;;;;;;;20.03;69.73;102581.13;5069325;28;20044;-71
2021/08/24 06:11:30;;;;;;;11.50;7.63;;;;;;;19.81;69.85;102584.69;5071108;28;20373;-70
2021/08/24 06:13:57;;;;;;;8.60;6.30;;;;;;;19.67;70.19;102585.44;5070711;28;20043;-71
2021/08/24 06:16:22;;;;;;;10.57;7.03;;;;;;;19.31;71.53;102589.47;5071062;28;20040;-70
2021/08/24 06:18:48;;;;;;;12.70;7.53;;;;;;;18.92;73.68;102586.75;5054244;28;20078;-71
2021/08/24 06:21:14;;;;;;;10.82;6.75;;;;;;;19.23;72.45;102597.63;5071671;28;20041;-70
2021/08/24 06:23:40;;;;;;;8.10;6.32;;;;;;;18.73;73.34;102594.19;5070737;28;20129;-70
2021/08/24 06:26:06;;;;;;;8.15;5.53;;;;;;;18.72;74.21;102586.25;5070069;28;20082;-71
2021/08/24 06:28:31;;;;;;;10.35;6.57;;;;;;;18.66;74.75;102592.31;5071688;28;20028;-70
2021/08/24 06:30:57;;;;;;;10.50;6.68;;;;;;;17.73;77.56;102596.13;5071466;28;20028;-71
2021/08/24 06:33:28;;;;;;;11.60;6.00;;;;;;;18.70;75.24;102588.25;5070419;28;20029;-71
2021/08/24 06:35:54;;;;;;;8.68;5.50;;;;;;;19.33;73.69;102600.97;5069976;28;20040;-71
2021/08/24 06:38:19;;;;;;;8.20;4.95;;;;;;;19.87;70.20;102602.09;5053772;28;20036;-71
2021/08/24 06:40:44;;;;;;;7.87;5.20;;;;;;;19.89;70.62;102602.75;5071052;28;20640;-71
2021/08/24 06:43:10;;;;;;;7.70;5.33;;;;;;;19.83;70.44;102607.03;5071221;28;20056;-71
2021/08/24 06:45:35;;;;;;;11.43;5.53;;;;;;;19.90;71.64;102607.13;5070753;28;20050;-71
2021/08/24 06:48:00;;;;;;;9.37;6.20;;;;;;;19.76;70.44;102612.31;5071072;28;20028;-71
2021/08/24 06:50:28;;;;;;;8.77;5.57;;;;;;;19.57;71.74;102613.56;5070030;28;20075;-71
2021/08/24 06:52:56;;;;;;;6.85;5.63;;;;;;;19.74;72.12;102614.38;5070613;28;20051;-72
2021/08/24 06:55:25;;;;;;;7.35;5.22;;;;;;;19.65;71.75;102607.25;5070089;28;20020;-71
2021/08/24 06:57:53;;;;;;;6.00;4.07;;;;;;;19.51;72.69;102611.56;5070622;28;20044;-71
2021/08/24 07:00:22;;;;;;;6.05;4.07;;;;;;;19.97;71.84;102614.41;5070317;28;20039;-71
2021/08/24 07:02:48;;;;;;;7.70;5.43;;;;;;;19.90;70.77;102607.13;5069704;28;20544;-71
2021/08/24 07:05:15;;;;;;;7.03;4.75;;;;;;;19.88;70.90;102615.47;5069702;28;20029;-70
2021/08/24 07:07:41;;;;;;;7.63;5.22;;;;;;;19.66;71.84;102617.06;5069336;28;20087;-71
2021/08/24 07:10:08;;;;;;;7.17;5.07;;;;;;;19.97;71.78;102618.94;5069448;28;20477;-70
2021/08/24 07:12:34;;;;;;;7.13;5.05;;;;;;;20.20;70.52;102624.38;5069460;28;20394;-70
2021/08/24 07:14:59;;;;;;;4.57;3.97;;;;;;;20.31;70.19;102625.84;5069711;28;20105;-70
2021/08/24 07:17:25;;;;;;;6.45;4.97;;;;;;;20.30;69.97;102622.28;5070297;28;20076;-70
2021/08/24 07:19:51;;;;;;;6.68;4.07;;;;;;;20.78;68.76;102619.34;5069687;28;20035;-70
2021/08/24 07:22:18;;;;;;;4.85;3.85;;;;;;;20.75;68.32;102622.44;5069509;28;20029;-70
2021/08/24 07:24:43;;;;;;;4.60;3.50;;;;;;;20.77;69.68;102625.81;5052860;28;20970;-70
2021/08/24 07:27:09;;;;;;;4.77;3.87;;;;;;;21.04;67.93;102618.91;5069125;28;20466;-71
2021/08/24 07:29:34;;;;;;;5.73;4.03;;;;;;;21.04;68.07;102625.16;5069739;28;20048;-70
2021/08/24 07:32:00;;;;;;;6.13;3.50;;;;;;;21.18;67.42;102625.38;5069292;28;20418;-70
2021/08/24 07:34:25;;;;;;;5.30;2.97;;;;;;;21.30;65.88;102623.84;5070158;28;20105;-71
2021/08/24 07:36:50;;;;;;;4.40;2.17;;;;;;;21.66;64.84;102623.09;5069086;28;20093;-70
2021/08/24 07:39:16;;;;;;;5.17;2.47;;;;;;;21.86;63.57;102626.03;5070195;28;20097;-70
2021/08/24 07:41:41;;;;;;;4.13;2.40;;;;;;;21.77;63.66;102622.59;5052614;28;20020;-70
2021/08/24 07:44:07;;;;;;;3.17;2.27;;;;;;;21.86;63.42;102631.47;5069921;28;20613;-70
2021/08/24 07:46:32;;;;;;;3.20;2.17;;;;;;;21.73;62.75;102628.59;5069903;28;20107;-70
2021/08/24 07:48:57;;;;;;;5.55;2.40;;;;;;;22.13;62.00;102632.63;5069150;28;20335;-70
2021/08/24 07:51:23;;;;;;;9.30;2.83;;;;;;;22.12;60.82;102637.22;5069780;28;20271;-70
2021/08/24 07:53:49;;;;;;;2.60;1.77;;;;;;;21.97;59.62;102632.88;5069833;28;20044;-71
2021/08/24 07:56:14;;;;;;;;;;;;;;;22.38;59.91;102632.25;5070135;28;20040;-70
2021/08/24 07:58:40;;;;;;;3.35;2.08;;;;;;;22.51;58.99;102625.03;5068859;28;19981;-71
2021/08/24 08:01:05;;;;;;;4.57;2.07;;;;;;;22.70;58.71;102622.69;5068971;28;20059;-70
2021/08/24 08:03:31;;;;;;;2.58;1.73;;;;;;;22.95;55.03;102628.50;5068611;28;20338;-70
2021/08/24 08:05:56;;;;;;;7.87;2.43;;;;;;;22.17;57.11;102633.88;5069376;28;20114;-70
2021/08/24 08:08:21;;;;;;;5.70;2.03;;;;;;;21.52;60.72;102643.84;5068937;28;20071;-70
2021/08/24 08:10:47;;;;;;;3.13;2.00;;;;;;;21.75;60.84;102634.69;5051887;28;20040;-70
2021/08/24 08:13:12;;;;;;;5.90;2.03;;;;;;;21.58;61.39;102634.91;5069649;28;20044;-70
2021/08/24 08:15:38;;;;;;;2.93;2.00;;;;;;;21.82;59.63;102628.31;5069145;28;20450;-70
2021/08/24 08:18:06;;;;;;;3.30;1.90;;;;;;;21.83;59.34;102632.72;5068455;28;20035;-70
2021/08/24 08:20:33;;;;;;;3.50;2.08;;;;;;;22.62;56.56;102631.00;5068369;28;20411;-70
2021/08/24 08:23:00;;;;;;;2.70;1.90;;;;;;;23.14;55.42;102630.53;5069454;28;20644;-71
2021/08/24 08:25:25;;;;;;;3.53;1.85;;;;;;;22.52;55.22;102623.16;5069133;28;20059;-71
2021/08/24 08:27:51;;;;;;;4.87;2.20;;;;;;;22.59;57.37;102626.75;5069195;28;20076;-70
2021/08/24 08:30:16;;;;;;;2.70;1.70;;;;;;;22.10;54.51;102628.41;5068079;28;20021;-70
2021/08/24 08:32:51;;;;;;;2.93;1.70;;;;;;;22.71;56.54;102624.34;5068332;28;20056;-71
2021/08/24 08:35:18;;;;;;;4.55;2.20;;;;;;;22.61;57.78;102632.88;5068119;28;20028;-70
2021/08/24 08:37:44;;;;;;;3.70;1.77;;;;;;;22.64;57.34;102634.34;5069172;28;20670;-71
2021/08/24 08:40:12;;;;;;;3.55;2.03;;;;;;;22.34;56.50;102635.38;5068077;28;20044;-70
2021/08/24 08:42:58;;;;;;;2.55;1.80;;;;;;;23.48;55.27;102628.81;5068953;28;20466;-71
2021/08/24 08:45:29;;;;;;;3.25;1.75;;;;;;;23.72;51.58;102637.53;5068649;28;20033;-71
2021/08/24 08:48:17;;;;;;;4.18;1.83;;;;;;;23.78;50.87;102642.19;5067874;28;20048;-71
2021/08/24 08:51:06;;;;;;;2.35;1.50;;;;;;;23.18;49.42;102637.28;5067726;28;20069;-71
2021/08/24 08:53:40;;;;;;;3.80;1.67;;;;;;;23.23;48.86;102644.03;5068235;28;20071;-71
2021/08/24 08:56:08;;;;;;;2.30;1.63;;;;;;;22.50;48.25;102647.00;5067428;28;20072;-71
2021/08/24 08:59:02;;;;;;;3.20;1.83;;;;;;;22.82;47.13;102647.47;5068876;28;20460;-71
2021/08/24 09:01:45;;;;;;;3.22;1.45;;;;;;;22.66;48.30;102646.72;5068334;28;20071;-71
2021/08/24 09:04:23;;;;;;;4.22;2.00;;;;;;;23.38;49.77;102647.44;5068540;28;20454;-71
2021/08/24 09:06:53;;;;;;;2.17;1.38;;;;;;;23.32;48.17;102637.34;5067467;28;20071;-71
2021/08/24 09:09:20;;;;;;;2.97;1.85;;;;;;;24.16;45.91;102649.81;5068790;28;20036;-71
2021/08/24 09:11:47;;;;;;;2.97;1.65;;;;;;;23.58;43.79;102655.72;5068362;28;20513;-71
2021/08/24 09:14:20;;;;;;;3.90;1.45;;;;;;;23.17;45.05;102641.03;5067441;28;20066;-71
2021/08/24 09:16:53;;;;;;;2.05;1.52;;;;;;;23.88;46.80;102649.97;5067168;28;20082;-71
2021/08/24 09:19:30;;;;;;;2.42;1.35;;;;;;;23.76;46.46;102647.88;5068588;28;20473;-71
2021/08/24 09:21:55;;;;;;;3.20;1.40;;;;;;;24.49;46.50;102649.06;5068282;28;20032;-71
2021/08/24 09:24:25;;;;;;;2.75;1.95;;;;;;;24.97;43.81;102646.09;5067434;28;20035;-71
2021/08/24 09:27:04;;;;;;;2.28;1.15;;;;;;;24.74;43.28;102643.81;5067086;28;20036;-71
2021/08/24 09:29:49;;;;;;;2.30;1.73;;;;;;;24.87;45.25;102635.59;5068478;28;20093;-71
2021/08/24 09:32:25;;;;;;;2.22;2.03;;;;;;;24.69;44.15;102638.13;5067029;28;20454;-71
2021/08/24 09:35:10;;;;;;;2.10;1.55;;;;;;;23.12;46.45;102632.63;5050485;28;20098;-71
2021/08/24 09:37:38;;;;;;;4.75;2.00;;;;;;;24.00;46.41;102632.81;5067907;28;20040;-71
2021/08/24 09:40:07;;;;;;;1.30;1.20;;;;;;;24.68;45.77;102628.25;5068394;28;20122;-71
2021/08/24 09:42:34;;;;;;;2.30;1.58;;;;;;;24.34;43.88;102630.13;5067044;28;20178;-71
2021/08/24 09:45:06;;;;;;;2.28;1.80;;;;;;;24.01;46.08;102625.47;5067178;28;20044;-71
2021/08/24 09:47:32;;;;;;;2.00;1.58;;;;;;;24.99;46.16;102624.88;5050251;28;20492;-70
2021/08/24 09:50:03;;;;;;;2.55;1.50;;;;;;;24.75;44.15;102621.75;5067072;28;20036;-71
2021/08/24 09:52:32;;;;;;;3.47;1.80;;;;;;;24.95;42.02;102627.16;5066931;28;20043;-71
2021/08/24 09:55:00;;;;;;;2.60;1.60;;;;;;;25.32;43.82;102618.50;5066870;28;20033;-71
2021/08/24 09:57:51;;;;;;;3.95;1.55;;;;;;;24.81;44.25;102620.06;5068001;28;20041;-70
2021/08/24 10:00:26;;;;;;;1.98;1.60;;;;;;;24.74;44.40;102614.59;5068074;28;20081;-70
2021/08/24 10:02:54;;;;;;;2.08;1.65;;;;;;;24.73;44.32;102621.13;5067951;28;20040;-70
2021/08/24 10:05:20;;;;;;;3.22;2.13;;;;;;;24.99;42.33;102622.13;5066747;28;20029;-70
2021/08/24 10:07:47;;;;;;;6.33;1.93;;;;;;;24.91;43.92;102625.94;5067877;28;20037;-70
2021/08/24 10:10:27;;;;;;;4.40;2.13;;;;;;;25.72;43.59;102626.50;5067833;28;20119;-70
2021/08/24 10:12:54;;;;;;;3.40;2.10;;;;;;;25.96;41.70;102627.66;5068026;28;20037;-70
2021/08/24 10:15:39;;;;;;;3.95;2.10;;;;;;;25.11;43.07;102630.50;5066840;28;20044;-70
2021/08/24 10:18:12;;;;;;;2.95;1.70;;;;;;;25.92;41.27;102624.56;5066882;28;20528;-70
2021/08/24 10:21:03;;;;;;;4.35;1.95;;;;;;;25.39;43.45;102627.50;5066888;28;20032;-71
2021/08/24 10:23:52;;;;;;;5.13;1.50;;;;;;;25.27;41.76;102632.81;5066936;28;20036;-71
2021/08/24 10:26:27;;;;;;;4.43;1.80;;;;;;;24.48;42.06;102623.66;5067176;28;20055;-71
2021/08/24 10:28:56;;;;;;;2.73;1.70;;;;;;;25.10;42.27;102629.69;5068035;28;20043;-71
2021/08/24 10:31:27;;;;;;;4.60;1.80;;;;;;;24.35;42.21;102631.78;5066813;28;20020;-71
2021/08/24 10:33:58;;;;;;;4.97;2.17;;;;;;;23.74;43.87;102619.09;5067741;28;20029;-70
2021/08/24 10:36:40;;;;;;;3.05;1.88;;;;;;;24.13;43.81;102631.16;5066206;28;20028;-70
2021/08/24 10:39:16;;;;;;;4.32;1.88;;;;;;;24.46;43.41;102631.16;5067858;28;20446;-70
2021/08/24 10:41:47;;;;;;;2.92;1.80;;;;;;;24.40;44.90;102629.28;5067752;28;20506;-70
2021/08/24 10:44:24;;;;;;;1.65;1.33;;;;;;;24.97;42.08;102626.97;5067948;28;20135;-70
2021/08/24 10:47:02;;;;;;;2.97;2.05;;;;;;;25.06;42.56;102628.41;5070903;28;20036;-70
2021/08/24 10:49:27;;;;;;;3.03;1.98;;;;;;;25.02;42.37;102629.88;5053972;28;20047;-70
2021/08/24 10:52:26;;;;;;;3.05;1.92;;;;;;;25.36;41.90;102625.22;5070991;28;20041;-70
2021/08/24 10:55:04;;;;;;;2.83;1.70;;;;;;;24.87;39.91;102629.31;5070345;28;20032;-70
2021/08/24 10:58:02;;;;;;;3.45;1.55;;;;;;;25.04;44.08;102630.53;5069764;28;20039;-70
2021/08/24 11:00:59;;;;;;;2.22;1.48;;;;;;;24.45;43.99;102629.50;5070427;28;20028;-70
2021/08/24 11:03:53;;;;;;;3.38;1.77;;;;;;;23.88;45.57;102625.41;5070208;28;20084;-70
2021/08/24 11:06:27;;;;;;;3.10;2.38;;;;;;;25.45;40.08;102621.16;5069480;28;20043;-70
2021/08/24 11:09:04;;;;;;;2.80;1.60;;;;;;;26.43;40.44;102612.56;5070249;28;20044;-70
2021/08/24 11:11:41;;;;;;;2.67;1.50;;;;;;;27.35;39.65;102617.38;5070658;28;20186;-70
2021/08/24 11:14:39;;;;;;;2.05;1.50;;;;;;;27.08;39.17;102614.06;5053049;28;20094;-70
2021/08/24 11:17:12;;;;;;;4.10;1.50;;;;;;;26.81;38.44;102606.16;5070466;28;20032;-70
2021/08/24 11:20:09;;;;;;;3.83;1.88;;;;;;;26.82;37.84;102605.06;5071077;28;20059;-70
2021/08/24 11:22:54;;;;;;;2.22;1.73;;;;;;;26.22;38.30;102610.22;5070515;28;20056;-70
2021/08/24 11:25:47;;;;;;;2.72;1.73;;;;;;;27.00;37.87;102606.19;5070721;28;20066;-70
2021/08/24 11:28:23;;;;;;;4.22;1.95;;;;;;;26.40;39.34;102599.31;5070572;28;20446;-70
2021/08/24 11:31:33;;;;;;;6.45;1.95;;;;;;;25.76;38.36;102590.31;5052897;28;20040;-70
2021/08/24 11:34:18;;;;;;;3.40;1.33;;;;;;;25.98;40.08;102589.97;5068325;28;20062;-70
2021/08/24 11:36:50;;;;;;;5.32;1.85;;;;;;;25.53;38.44;102588.09;5070474;28;20052;-70
2021/08/24 11:39:21;;;;;;;2.92;1.63;;;;;;;24.06;40.33;102590.22;5052675;28;20135;-70
2021/08/24 11:41:50;;;;;;;3.58;1.58;;;;;;;25.51;39.02;102587.47;5069460;28;20389;-70